sensor_id;sensor_type;location;lat;lon;timestamp;P1;durP1;ratioP1;P2;durP2;ratioP2
54599;SDS011;40500;51.084;16.958;2023-04-01T00:01:43;6.50;;;3.30;;
54599;SDS011;40500;51.084;16.958;2023-04-01T00:04:13;4.80;;;3.10;;
54599;SDS011;40500;51.084;16.958;2023-04-01T00:06:44;5.70;;;3.80;;
54599;SDS011;40500;51.084;16.958;2023-04-01T00:09:16;4.80;;;3.40;;
54599;SDS011;40500;51.084;16.958;2023-04-01T00:11:46;6.10;;;3.50;;
54599;SDS011;40500;51.084;16.958;2023-04-01T00:14:17;5.10;;;3.90;;
54599;SDS011;40500;51.084;16.958;2023-04-01T00:16:47;4.70;;;4.10;;
54599;SDS011;40500;51.084;16.958;2023-04-01T00:19:18;6.30;;;3.60;;
54599;SDS011;40500;51.084;16.958;2023-04-01T00:21:48;5.30;;;3.80;;
54599;SDS011;40500;51.084;16.958;2023-04-01T00:24:19;7.60;;;4.00;;
54599;SDS011;40500;51.084;16.958;2023-04-01T00:26:50;8.40;;;4.40;;
54599;SDS011;40500;51.084;16.958;2023-04-01T00:29:20;4.60;;;4.10;;
54599;SDS011;40500;51.084;16.958;2023-04-01T00:31:51;8.00;;;5.10;;
54599;SDS011;40500;51.084;16.958;2023-04-01T00:34:22;4.70;;;3.90;;
54599;SDS011;40500;51.084;16.958;2023-04-01T00:36:53;8.10;;;4.60;;
54599;SDS011;40500;51.084;16.958;2023-04-01T00:39:23;6.30;;;4.70;;
54599;SDS011;40500;51.084;16.958;2023-04-01T00:41:54;5.20;;;4.20;;
54599;SDS011;40500;51.084;16.958;2023-04-01T00:44:25;6.30;;;4.40;;
54599;SDS011;40500;51.084;16.958;2023-04-01T00:46:57;4.40;;;3.90;;
54599;SDS011;40500;51.084;16.958;2023-04-01T00:49:29;5.90;;;4.10;;
54599;SDS011;40500;51.084;16.958;2023-04-01T00:52:02;7.20;;;4.20;;
54599;SDS011;40500;51.084;16.958;2023-04-01T00:54:34;7.30;;;4.60;;
54599;SDS011;40500;51.084;16.958;2023-04-01T00:57:12;4.90;;;3.80;;
54599;SDS011;40500;51.084;16.958;2023-04-01T00:59:46;6.20;;;4.50;;
54599;SDS011;40500;51.084;16.958;2023-04-01T01:02:21;4.90;;;4.40;;
54599;SDS011;40500;51.084;16.958;2023-04-01T01:04:52;6.10;;;4.20;;
54599;SDS011;40500;51.084;16.958;2023-04-01T01:07:25;6.30;;;4.90;;
54599;SDS011;40500;51.084;16.958;2023-04-01T01:10:03;6.90;;;4.60;;
54599;SDS011;40500;51.084;16.958;2023-04-01T01:15:14;6.50;;;5.10;;
54599;SDS011;40500;51.084;16.958;2023-04-01T01:17:51;4.80;;;4.10;;
54599;SDS011;40500;51.084;16.958;2023-04-01T01:20:38;9.30;;;5.10;;
54599;SDS011;40500;51.084;16.958;2023-04-01T01:26:39;5.40;;;4.20;;
54599;SDS011;40500;51.084;16.958;2023-04-01T01:32:07;7.50;;;4.00;;
54599;SDS011;40500;51.084;16.958;2023-04-01T01:34:46;6.80;;;4.10;;
54599;SDS011;40500;51.084;16.958;2023-04-01T01:37:24;5.50;;;3.80;;
54599;SDS011;40500;51.084;16.958;2023-04-01T01:39:58;7.20;;;4.70;;
54599;SDS011;40500;51.084;16.958;2023-04-01T01:42:34;5.10;;;4.40;;
54599;SDS011;40500;51.084;16.958;2023-04-01T01:45:08;4.60;;;4.10;;
54599;SDS011;40500;51.084;16.958;2023-04-01T01:47:41;5.30;;;4.00;;
54599;SDS011;40500;51.084;16.958;2023-04-01T01:50:13;5.20;;;4.30;;
54599;SDS011;40500;51.084;16.958;2023-04-01T01:52:45;4.90;;;4.00;;
54599;SDS011;40500;51.084;16.958;2023-04-01T01:55:27;7.70;;;4.40;;
54599;SDS011;40500;51.084;16.958;2023-04-01T01:58:02;6.30;;;4.10;;
54599;SDS011;40500;51.084;16.958;2023-04-01T02:00:39;5.80;;;4.10;;
54599;SDS011;40500;51.084;16.958;2023-04-01T02:03:13;5.40;;;4.00;;
54599;SDS011;40500;51.084;16.958;2023-04-01T02:05:45;5.60;;;4.20;;
54599;SDS011;40500;51.084;16.958;2023-04-01T02:08:18;4.70;;;3.60;;
54599;SDS011;40500;51.084;16.958;2023-04-01T02:13:29;4.80;;;3.70;;
54599;SDS011;40500;51.084;16.958;2023-04-01T02:16:05;4.20;;;3.30;;
54599;SDS011;40500;51.084;16.958;2023-04-01T02:18:40;4.40;;;3.10;;
54599;SDS011;40500;51.084;16.958;2023-04-01T02:21:12;3.70;;;3.10;;
54599;SDS011;40500;51.084;16.958;2023-04-01T02:23:43;3.60;;;3.00;;
54599;SDS011;40500;51.084;16.958;2023-04-01T02:26:15;3.40;;;3.00;;
54599;SDS011;40500;51.084;16.958;2023-04-01T02:28:46;4.50;;;2.80;;
54599;SDS011;40500;51.084;16.958;2023-04-01T02:31:19;3.90;;;2.80;;
54599;SDS011;40500;51.084;16.958;2023-04-01T02:33:53;3.10;;;2.60;;
54599;SDS011;40500;51.084;16.958;2023-04-01T02:36:24;3.10;;;2.70;;
54599;SDS011;40500;51.084;16.958;2023-04-01T02:38:55;3.00;;;2.30;;
54599;SDS011;40500;51.084;16.958;2023-04-01T02:41:31;3.10;;;2.00;;
54599;SDS011;40500;51.084;16.958;2023-04-01T02:44:08;2.30;;;2.20;;
54599;SDS011;40500;51.084;16.958;2023-04-01T02:46:39;2.10;;;1.70;;
54599;SDS011;40500;51.084;16.958;2023-04-01T02:49:10;2.00;;;1.70;;
54599;SDS011;40500;51.084;16.958;2023-04-01T02:51:40;2.00;;;1.80;;
54599;SDS011;40500;51.084;16.958;2023-04-01T02:54:11;4.40;;;2.40;;
54599;SDS011;40500;51.084;16.958;2023-04-01T02:56:43;2.90;;;1.90;;
54599;SDS011;40500;51.084;16.958;2023-04-01T02:59:14;4.80;;;2.40;;
54599;SDS011;40500;51.084;16.958;2023-04-01T03:01:45;3.00;;;2.60;;
54599;SDS011;40500;51.084;16.958;2023-04-01T03:04:15;2.70;;;2.10;;
54599;SDS011;40500;51.084;16.958;2023-04-01T03:06:46;2.60;;;2.20;;
54599;SDS011;40500;51.084;16.958;2023-04-01T03:09:16;3.90;;;2.60;;
54599;SDS011;40500;51.084;16.958;2023-04-01T03:11:46;3.00;;;2.10;;
54599;SDS011;40500;51.084;16.958;2023-04-01T03:14:17;2.30;;;2.10;;
54599;SDS011;40500;51.084;16.958;2023-04-01T03:16:47;4.10;;;1.90;;
54599;SDS011;40500;51.084;16.958;2023-04-01T03:19:18;4.90;;;2.10;;
54599;SDS011;40500;51.084;16.958;2023-04-01T03:21:48;3.50;;;2.20;;
54599;SDS011;40500;51.084;16.958;2023-04-01T03:24:19;2.10;;;1.80;;
54599;SDS011;40500;51.084;16.958;2023-04-01T03:26:49;2.80;;;2.10;;
54599;SDS011;40500;51.084;16.958;2023-04-01T03:29:20;4.40;;;2.60;;
54599;SDS011;40500;51.084;16.958;2023-04-01T03:31:50;2.90;;;2.10;;
54599;SDS011;40500;51.084;16.958;2023-04-01T03:34:20;2.20;;;2.00;;
54599;SDS011;40500;51.084;16.958;2023-04-01T03:36:51;2.20;;;2.00;;
54599;SDS011;40500;51.084;16.958;2023-04-01T03:39:22;2.50;;;2.30;;
54599;SDS011;40500;51.084;16.958;2023-04-01T03:41:52;2.90;;;2.20;;
54599;SDS011;40500;51.084;16.958;2023-04-01T03:44:23;2.50;;;2.30;;
54599;SDS011;40500;51.084;16.958;2023-04-01T03:46:54;3.50;;;3.00;;
54599;SDS011;40500;51.084;16.958;2023-04-01T03:49:24;5.70;;;4.60;;
54599;SDS011;40500;51.084;16.958;2023-04-01T03:51:55;6.50;;;5.90;;
54599;SDS011;40500;51.084;16.958;2023-04-01T03:54:25;9.10;;;8.20;;
54599;SDS011;40500;51.084;16.958;2023-04-01T03:56:55;8.90;;;8.00;;
54599;SDS011;40500;51.084;16.958;2023-04-01T03:59:26;11.20;;;10.00;;
54599;SDS011;40500;51.084;16.958;2023-04-01T04:01:57;10.40;;;9.30;;
54599;SDS011;40500;51.084;16.958;2023-04-01T04:04:28;9.60;;;8.60;;
54599;SDS011;40500;51.084;16.958;2023-04-01T04:06:59;8.40;;;7.50;;
54599;SDS011;40500;51.084;16.958;2023-04-01T04:09:36;5.80;;;4.00;;
54599;SDS011;40500;51.084;16.958;2023-04-01T04:12:07;3.50;;;3.10;;
54599;SDS011;40500;51.084;16.958;2023-04-01T04:14:37;3.30;;;3.00;;
54599;SDS011;40500;51.084;16.958;2023-04-01T04:17:09;2.60;;;2.40;;
54599;SDS011;40500;51.084;16.958;2023-04-01T04:19:43;3.10;;;2.10;;
54599;SDS011;40500;51.084;16.958;2023-04-01T04:22:15;2.30;;;1.90;;
54599;SDS011;40500;51.084;16.958;2023-04-01T04:24:45;2.50;;;2.00;;
54599;SDS011;40500;51.084;16.958;2023-04-01T04:27:16;3.00;;;2.70;;
54599;SDS011;40500;51.084;16.958;2023-04-01T04:29:59;2.70;;;2.50;;
54599;SDS011;40500;51.084;16.958;2023-04-01T04:32:30;2.80;;;2.60;;
54599;SDS011;40500;51.084;16.958;2023-04-01T04:35:01;2.90;;;2.40;;
54599;SDS011;40500;51.084;16.958;2023-04-01T04:37:31;3.50;;;2.40;;
54599;SDS011;40500;51.084;16.958;2023-04-01T04:40:02;3.50;;;2.40;;
54599;SDS011;40500;51.084;16.958;2023-04-01T04:42:34;2.00;;;1.80;;
54599;SDS011;40500;51.084;16.958;2023-04-01T04:45:09;2.20;;;1.80;;
54599;SDS011;40500;51.084;16.958;2023-04-01T04:47:45;3.10;;;2.60;;
54599;SDS011;40500;51.084;16.958;2023-04-01T04:50:15;2.50;;;2.30;;
54599;SDS011;40500;51.084;16.958;2023-04-01T04:52:45;2.80;;;2.50;;
54599;SDS011;40500;51.084;16.958;2023-04-01T04:55:17;3.60;;;2.60;;
54599;SDS011;40500;51.084;16.958;2023-04-01T04:57:51;2.00;;;1.80;;
54599;SDS011;40500;51.084;16.958;2023-04-01T05:00:21;1.90;;;1.60;;
54599;SDS011;40500;51.084;16.958;2023-04-01T05:02:56;1.80;;;1.60;;
54599;SDS011;40500;51.084;16.958;2023-04-01T05:05:27;2.90;;;1.50;;
54599;SDS011;40500;51.084;16.958;2023-04-01T05:07:58;3.20;;;1.80;;
54599;SDS011;40500;51.084;16.958;2023-04-01T05:10:31;3.50;;;1.50;;
54599;SDS011;40500;51.084;16.958;2023-04-01T05:13:02;2.60;;;1.20;;
54599;SDS011;40500;51.084;16.958;2023-04-01T05:15:32;2.10;;;1.60;;
54599;SDS011;40500;51.084;16.958;2023-04-01T05:18:03;2.50;;;1.70;;
54599;SDS011;40500;51.084;16.958;2023-04-01T05:20:34;3.80;;;1.80;;
54599;SDS011;40500;51.084;16.958;2023-04-01T05:23:05;1.80;;;1.60;;
54599;SDS011;40500;51.084;16.958;2023-04-01T05:25:38;1.60;;;1.30;;
54599;SDS011;40500;51.084;16.958;2023-04-01T05:28:09;4.80;;;1.30;;
54599;SDS011;40500;51.084;16.958;2023-04-01T05:30:40;1.30;;;1.20;;
54599;SDS011;40500;51.084;16.958;2023-04-01T05:33:26;1.70;;;1.10;;
54599;SDS011;40500;51.084;16.958;2023-04-01T05:35:57;1.40;;;1.20;;
54599;SDS011;40500;51.084;16.958;2023-04-01T05:38:36;2.50;;;1.70;;
54599;SDS011;40500;51.084;16.958;2023-04-01T05:41:08;3.90;;;1.80;;
54599;SDS011;40500;51.084;16.958;2023-04-01T05:43:42;2.10;;;1.40;;
54599;SDS011;40500;51.084;16.958;2023-04-01T05:46:48;1.50;;;1.40;;
54599;SDS011;40500;51.084;16.958;2023-04-01T05:49:23;1.90;;;1.30;;
54599;SDS011;40500;51.084;16.958;2023-04-01T05:51:55;2.70;;;1.70;;
54599;SDS011;40500;51.084;16.958;2023-04-01T05:54:27;4.60;;;2.00;;
54599;SDS011;40500;51.084;16.958;2023-04-01T05:56:57;4.80;;;2.10;;
54599;SDS011;40500;51.084;16.958;2023-04-01T05:59:28;2.10;;;1.60;;
54599;SDS011;40500;51.084;16.958;2023-04-01T06:01:59;2.00;;;1.50;;
54599;SDS011;40500;51.084;16.958;2023-04-01T06:04:40;7.10;;;1.70;;
54599;SDS011;40500;51.084;16.958;2023-04-01T06:07:12;5.60;;;1.70;;
54599;SDS011;40500;51.084;16.958;2023-04-01T06:09:44;2.40;;;1.70;;
54599;SDS011;40500;51.084;16.958;2023-04-01T06:15:19;4.80;;;1.70;;
54599;SDS011;40500;51.084;16.958;2023-04-01T06:17:59;2.50;;;1.80;;
54599;SDS011;40500;51.084;16.958;2023-04-01T06:20:46;5.10;;;1.70;;
54599;SDS011;40500;51.084;16.958;2023-04-01T06:23:26;1.80;;;1.70;;
54599;SDS011;40500;51.084;16.958;2023-04-01T06:26:13;1.70;;;1.40;;
54599;SDS011;40500;51.084;16.958;2023-04-01T06:28:56;2.40;;;1.10;;
54599;SDS011;40500;51.084;16.958;2023-04-01T06:31:38;2.10;;;1.60;;
54599;SDS011;40500;51.084;16.958;2023-04-01T06:34:26;1.90;;;1.30;;
54599;SDS011;40500;51.084;16.958;2023-04-01T06:37:14;1.50;;;1.40;;
54599;SDS011;40500;51.084;16.958;2023-04-01T06:40:04;1.90;;;1.60;;
54599;SDS011;40500;51.084;16.958;2023-04-01T06:42:53;2.10;;;1.60;;
54599;SDS011;40500;51.084;16.958;2023-04-01T06:45:55;3.20;;;1.80;;
54599;SDS011;40500;51.084;16.958;2023-04-01T06:48:57;6.30;;;2.10;;
54599;SDS011;40500;51.084;16.958;2023-04-01T06:52:08;2.40;;;1.90;;
54599;SDS011;40500;51.084;16.958;2023-04-01T06:55:07;2.20;;;1.80;;
54599;SDS011;40500;51.084;16.958;2023-04-01T06:58:13;1.90;;;1.80;;
54599;SDS011;40500;51.084;16.958;2023-04-01T07:00:50;2.50;;;1.70;;
54599;SDS011;40500;51.084;16.958;2023-04-01T07:03:26;3.90;;;1.90;;
54599;SDS011;40500;51.084;16.958;2023-04-01T07:06:04;3.00;;;1.70;;
54599;SDS011;40500;51.084;16.958;2023-04-01T07:08:45;4.60;;;1.50;;
54599;SDS011;40500;51.084;16.958;2023-04-01T07:11:20;2.00;;;1.60;;
54599;SDS011;40500;51.084;16.958;2023-04-01T07:14:28;2.30;;;1.60;;
54599;SDS011;40500;51.084;16.958;2023-04-01T07:17:04;5.20;;;1.30;;
54599;SDS011;40500;51.084;16.958;2023-04-01T07:19:39;3.40;;;2.00;;
54599;SDS011;40500;51.084;16.958;2023-04-01T07:25:15;1.40;;;1.20;;
54599;SDS011;40500;51.084;16.958;2023-04-01T07:27:56;3.60;;;1.80;;
54599;SDS011;40500;51.084;16.958;2023-04-01T07:30:38;1.60;;;1.30;;
54599;SDS011;40500;51.084;16.958;2023-04-01T07:33:16;1.70;;;1.40;;
54599;SDS011;40500;51.084;16.958;2023-04-01T07:35:54;4.20;;;1.40;;
54599;SDS011;40500;51.084;16.958;2023-04-01T07:38:33;2.80;;;1.50;;
54599;SDS011;40500;51.084;16.958;2023-04-01T07:43:58;3.80;;;1.50;;
54599;SDS011;40500;51.084;16.958;2023-04-01T07:46:44;4.40;;;1.20;;
54599;SDS011;40500;51.084;16.958;2023-04-01T07:49:24;3.60;;;1.50;;
54599;SDS011;40500;51.084;16.958;2023-04-01T07:52:04;2.70;;;1.40;;
54599;SDS011;40500;51.084;16.958;2023-04-01T07:54:43;2.70;;;1.40;;
54599;SDS011;40500;51.084;16.958;2023-04-01T07:59:55;3.10;;;1.50;;
54599;SDS011;40500;51.084;16.958;2023-04-01T08:02:44;3.50;;;1.60;;
54599;SDS011;40500;51.084;16.958;2023-04-01T08:05:28;1.70;;;1.50;;
54599;SDS011;40500;51.084;16.958;2023-04-01T08:08:06;2.40;;;1.50;;
54599;SDS011;40500;51.084;16.958;2023-04-01T08:11:27;2.70;;;1.50;;
54599;SDS011;40500;51.084;16.958;2023-04-01T08:14:30;3.40;;;1.80;;
54599;SDS011;40500;51.084;16.958;2023-04-01T08:17:45;2.30;;;1.60;;
54599;SDS011;40500;51.084;16.958;2023-04-01T08:20:27;2.10;;;1.30;;
54599;SDS011;40500;51.084;16.958;2023-04-01T08:23:05;2.30;;;1.80;;
54599;SDS011;40500;51.084;16.958;2023-04-01T08:25:42;4.80;;;1.70;;
54599;SDS011;40500;51.084;16.958;2023-04-01T08:28:21;3.10;;;1.70;;
54599;SDS011;40500;51.084;16.958;2023-04-01T08:30:58;2.40;;;1.70;;
54599;SDS011;40500;51.084;16.958;2023-04-01T08:33:33;3.10;;;1.90;;
54599;SDS011;40500;51.084;16.958;2023-04-01T08:36:09;4.50;;;1.80;;
54599;SDS011;40500;51.084;16.958;2023-04-01T08:38:49;4.80;;;2.00;;
54599;SDS011;40500;51.084;16.958;2023-04-01T08:41:36;2.50;;;2.10;;
54599;SDS011;40500;51.084;16.958;2023-04-01T08:45:07;3.60;;;1.90;;
54599;SDS011;40500;51.084;16.958;2023-04-01T08:47:56;2.90;;;2.10;;
54599;SDS011;40500;51.084;16.958;2023-04-01T08:50:45;3.80;;;2.10;;
54599;SDS011;40500;51.084;16.958;2023-04-01T08:53:43;3.20;;;2.00;;
54599;SDS011;40500;51.084;16.958;2023-04-01T08:56:25;3.80;;;1.90;;
54599;SDS011;40500;51.084;16.958;2023-04-01T08:59:15;3.70;;;1.80;;
54599;SDS011;40500;51.084;16.958;2023-04-01T09:05:18;5.50;;;2.00;;
54599;SDS011;40500;51.084;16.958;2023-04-01T09:08:03;2.50;;;1.90;;
54599;SDS011;40500;51.084;16.958;2023-04-01T09:10:52;2.70;;;1.80;;
54599;SDS011;40500;51.084;16.958;2023-04-01T09:14:22;2.70;;;1.90;;
54599;SDS011;40500;51.084;16.958;2023-04-01T09:17:31;2.70;;;1.70;;
54599;SDS011;40500;51.084;16.958;2023-04-01T09:20:19;3.10;;;2.40;;
54599;SDS011;40500;51.084;16.958;2023-04-01T09:23:13;3.00;;;1.80;;
54599;SDS011;40500;51.084;16.958;2023-04-01T09:26:00;3.80;;;1.90;;
54599;SDS011;40500;51.084;16.958;2023-04-01T09:28:45;3.10;;;1.80;;
54599;SDS011;40500;51.084;16.958;2023-04-01T09:31:27;3.10;;;2.00;;
54599;SDS011;40500;51.084;16.958;2023-04-01T09:34:45;2.40;;;2.10;;
54599;SDS011;40500;51.084;16.958;2023-04-01T09:37:35;5.60;;;2.60;;
54599;SDS011;40500;51.084;16.958;2023-04-01T09:40:24;3.20;;;2.00;;
54599;SDS011;40500;51.084;16.958;2023-04-01T09:46:23;4.60;;;2.80;;
54599;SDS011;40500;51.084;16.958;2023-04-01T09:49:20;3.50;;;2.50;;
54599;SDS011;40500;51.084;16.958;2023-04-01T09:52:13;3.80;;;2.40;;
54599;SDS011;40500;51.084;16.958;2023-04-01T09:55:03;3.10;;;2.20;;
54599;SDS011;40500;51.084;16.958;2023-04-01T09:57:57;3.50;;;2.40;;
54599;SDS011;40500;51.084;16.958;2023-04-01T10:01:30;2.50;;;2.30;;
54599;SDS011;40500;51.084;16.958;2023-04-01T10:04:22;2.50;;;2.20;;
54599;SDS011;40500;51.084;16.958;2023-04-01T10:07:24;2.50;;;2.10;;
54599;SDS011;40500;51.084;16.958;2023-04-01T10:10:35;2.30;;;2.10;;
54599;SDS011;40500;51.084;16.958;2023-04-01T10:13:30;1.80;;;1.70;;
54599;SDS011;40500;51.084;16.958;2023-04-01T10:19:46;3.10;;;1.50;;
54599;SDS011;40500;51.084;16.958;2023-04-01T10:22:51;3.40;;;1.60;;
54599;SDS011;40500;51.084;16.958;2023-04-01T10:29:07;3.30;;;1.60;;
54599;SDS011;40500;51.084;16.958;2023-04-01T10:32:15;1.80;;;1.40;;
54599;SDS011;40500;51.084;16.958;2023-04-01T10:35:08;2.70;;;1.80;;
54599;SDS011;40500;51.084;16.958;2023-04-01T10:41:13;1.60;;;1.20;;
54599;SDS011;40500;51.084;16.958;2023-04-01T10:44:30;1.30;;;1.20;;
54599;SDS011;40500;51.084;16.958;2023-04-01T10:53:29;2.80;;;1.50;;
54599;SDS011;40500;51.084;16.958;2023-04-01T10:56:40;1.50;;;1.40;;
54599;SDS011;40500;51.084;16.958;2023-04-01T10:59:41;2.30;;;1.60;;
54599;SDS011;40500;51.084;16.958;2023-04-01T11:02:45;2.60;;;2.00;;
54599;SDS011;40500;51.084;16.958;2023-04-01T11:06:03;2.80;;;1.90;;
54599;SDS011;40500;51.084;16.958;2023-04-01T11:09:18;2.30;;;2.20;;
54599;SDS011;40500;51.084;16.958;2023-04-01T11:15:27;2.10;;;1.30;;
54599;SDS011;40500;51.084;16.958;2023-04-01T11:21:46;1.60;;;1.10;;
54599;SDS011;40500;51.084;16.958;2023-04-01T11:28:18;2.10;;;1.80;;
54599;SDS011;40500;51.084;16.958;2023-04-01T11:31:09;2.30;;;1.80;;
54599;SDS011;40500;51.084;16.958;2023-04-01T11:33:54;4.20;;;2.20;;
54599;SDS011;40500;51.084;16.958;2023-04-01T11:36:35;2.60;;;1.80;;
54599;SDS011;40500;51.084;16.958;2023-04-01T11:39:19;1.80;;;1.50;;
54599;SDS011;40500;51.084;16.958;2023-04-01T11:42:17;2.00;;;1.80;;
54599;SDS011;40500;51.084;16.958;2023-04-01T11:45:32;5.40;;;2.00;;
54599;SDS011;40500;51.084;16.958;2023-04-01T11:48:12;3.50;;;1.70;;
54599;SDS011;40500;51.084;16.958;2023-04-01T11:50:55;1.50;;;1.40;;
54599;SDS011;40500;51.084;16.958;2023-04-01T11:53:46;1.00;;;0.90;;
54599;SDS011;40500;51.084;16.958;2023-04-01T11:56:37;1.70;;;0.90;;
54599;SDS011;40500;51.084;16.958;2023-04-01T12:02:29;2.10;;;1.00;;
54599;SDS011;40500;51.084;16.958;2023-04-01T12:05:19;0.60;;;0.60;;
54599;SDS011;40500;51.084;16.958;2023-04-01T12:08:06;2.10;;;1.20;;
54599;SDS011;40500;51.084;16.958;2023-04-01T12:10:46;1.60;;;1.20;;
54599;SDS011;40500;51.084;16.958;2023-04-01T12:13:29;1.20;;;1.10;;
54599;SDS011;40500;51.084;16.958;2023-04-01T12:16:23;1.30;;;1.00;;
54599;SDS011;40500;51.084;16.958;2023-04-01T12:19:08;1.00;;;1.00;;
54599;SDS011;40500;51.084;16.958;2023-04-01T12:21:52;1.50;;;1.10;;
54599;SDS011;40500;51.084;16.958;2023-04-01T12:24:39;1.40;;;1.10;;
54599;SDS011;40500;51.084;16.958;2023-04-01T12:27:40;1.70;;;0.90;;
54599;SDS011;40500;51.084;16.958;2023-04-01T12:30:24;1.20;;;1.10;;
54599;SDS011;40500;51.084;16.958;2023-04-01T12:33:10;1.40;;;1.00;;
54599;SDS011;40500;51.084;16.958;2023-04-01T12:36:13;1.20;;;1.10;;
54599;SDS011;40500;51.084;16.958;2023-04-01T12:39:00;0.90;;;0.90;;
54599;SDS011;40500;51.084;16.958;2023-04-01T12:41:49;2.60;;;1.10;;
54599;SDS011;40500;51.084;16.958;2023-04-01T12:44:31;1.90;;;1.10;;
54599;SDS011;40500;51.084;16.958;2023-04-01T12:50:32;1.60;;;1.20;;
54599;SDS011;40500;51.084;16.958;2023-04-01T12:53:16;2.40;;;1.30;;
54599;SDS011;40500;51.084;16.958;2023-04-01T12:56:03;1.50;;;1.40;;
54599;SDS011;40500;51.084;16.958;2023-04-01T12:58:49;2.40;;;1.70;;
54599;SDS011;40500;51.084;16.958;2023-04-01T13:01:37;2.70;;;1.80;;
54599;SDS011;40500;51.084;16.958;2023-04-01T13:04:32;2.30;;;1.50;;
54599;SDS011;40500;51.084;16.958;2023-04-01T13:07:17;2.00;;;1.70;;
54599;SDS011;40500;51.084;16.958;2023-04-01T13:10:18;1.20;;;1.10;;
54599;SDS011;40500;51.084;16.958;2023-04-01T13:13:22;1.20;;;1.10;;
54599;SDS011;40500;51.084;16.958;2023-04-01T13:16:09;2.50;;;1.40;;
54599;SDS011;40500;51.084;16.958;2023-04-01T13:18:47;1.90;;;1.60;;
54599;SDS011;40500;51.084;16.958;2023-04-01T13:21:29;1.70;;;1.60;;
54599;SDS011;40500;51.084;16.958;2023-04-01T13:24:12;2.00;;;1.80;;
54599;SDS011;40500;51.084;16.958;2023-04-01T13:26:56;2.50;;;1.90;;
54599;SDS011;40500;51.084;16.958;2023-04-01T13:29:34;2.90;;;1.80;;
54599;SDS011;40500;51.084;16.958;2023-04-01T13:32:16;3.20;;;0.90;;
54599;SDS011;40500;51.084;16.958;2023-04-01T13:35:17;1.20;;;1.10;;
54599;SDS011;40500;51.084;16.958;2023-04-01T13:38:02;1.70;;;1.10;;
54599;SDS011;40500;51.084;16.958;2023-04-01T13:40:49;0.80;;;0.80;;
54599;SDS011;40500;51.084;16.958;2023-04-01T13:43:31;2.20;;;0.90;;
54599;SDS011;40500;51.084;16.958;2023-04-01T13:46:12;0.70;;;0.70;;
54599;SDS011;40500;51.084;16.958;2023-04-01T13:49:10;1.10;;;0.90;;
54599;SDS011;40500;51.084;16.958;2023-04-01T13:54:43;1.20;;;0.70;;
54599;SDS011;40500;51.084;16.958;2023-04-01T13:57:40;1.40;;;0.90;;
54599;SDS011;40500;51.084;16.958;2023-04-01T14:00:28;1.00;;;0.70;;
54599;SDS011;40500;51.084;16.958;2023-04-01T14:03:18;1.20;;;1.10;;
54599;SDS011;40500;51.084;16.958;2023-04-01T14:12:16;0.70;;;0.70;;
54599;SDS011;40500;51.084;16.958;2023-04-01T14:15:03;3.20;;;1.10;;
54599;SDS011;40500;51.084;16.958;2023-04-01T14:17:53;2.80;;;1.30;;
54599;SDS011;40500;51.084;16.958;2023-04-01T14:20:39;0.80;;;0.80;;
54599;SDS011;40500;51.084;16.958;2023-04-01T14:23:20;3.50;;;1.00;;
54599;SDS011;40500;51.084;16.958;2023-04-01T14:26:06;1.30;;;0.80;;
54599;SDS011;40500;51.084;16.958;2023-04-01T14:28:51;0.80;;;0.70;;
54599;SDS011;40500;51.084;16.958;2023-04-01T14:31:36;0.90;;;0.90;;
54599;SDS011;40500;51.084;16.958;2023-04-01T14:34:21;4.30;;;1.20;;
54599;SDS011;40500;51.084;16.958;2023-04-01T14:37:03;1.00;;;0.90;;
54599;SDS011;40500;51.084;16.958;2023-04-01T14:39:59;1.70;;;1.20;;
54599;SDS011;40500;51.084;16.958;2023-04-01T14:46:10;1.40;;;1.20;;
54599;SDS011;40500;51.084;16.958;2023-04-01T14:48:54;1.30;;;1.20;;
54599;SDS011;40500;51.084;16.958;2023-04-01T14:51:30;1.30;;;1.20;;
54599;SDS011;40500;51.084;16.958;2023-04-01T14:54:06;2.90;;;1.90;;
54599;SDS011;40500;51.084;16.958;2023-04-01T14:56:44;6.70;;;2.50;;
54599;SDS011;40500;51.084;16.958;2023-04-01T14:59:27;17.60;;;3.20;;
54599;SDS011;40500;51.084;16.958;2023-04-01T15:01:59;3.60;;;2.40;;
54599;SDS011;40500;51.084;16.958;2023-04-01T15:04:41;4.10;;;3.10;;
54599;SDS011;40500;51.084;16.958;2023-04-01T15:10:34;4.50;;;2.80;;
54599;SDS011;40500;51.084;16.958;2023-04-01T15:13:26;2.90;;;2.20;;
54599;SDS011;40500;51.084;16.958;2023-04-01T15:16:11;4.60;;;3.40;;
54599;SDS011;40500;51.084;16.958;2023-04-01T15:18:49;5.70;;;4.40;;
54599;SDS011;40500;51.084;16.958;2023-04-01T15:21:33;4.10;;;3.00;;
54599;SDS011;40500;51.084;16.958;2023-04-01T15:24:19;2.60;;;2.40;;
54599;SDS011;40500;51.084;16.958;2023-04-01T15:26:59;4.60;;;3.10;;
54599;SDS011;40500;51.084;16.958;2023-04-01T15:29:46;5.80;;;3.10;;
54599;SDS011;40500;51.084;16.958;2023-04-01T15:32:31;4.20;;;2.90;;
54599;SDS011;40500;51.084;16.958;2023-04-01T15:35:18;5.40;;;3.20;;
54599;SDS011;40500;51.084;16.958;2023-04-01T15:37:56;5.20;;;3.30;;
54599;SDS011;40500;51.084;16.958;2023-04-01T15:40:36;3.10;;;2.70;;
54599;SDS011;40500;51.084;16.958;2023-04-01T15:43:14;2.10;;;1.90;;
54599;SDS011;40500;51.084;16.958;2023-04-01T15:45:54;2.60;;;2.30;;
54599;SDS011;40500;51.084;16.958;2023-04-01T15:48:43;2.40;;;2.20;;
54599;SDS011;40500;51.084;16.958;2023-04-01T15:51:23;4.80;;;3.80;;
54599;SDS011;40500;51.084;16.958;2023-04-01T16:00:08;4.30;;;2.80;;
54599;SDS011;40500;51.084;16.958;2023-04-01T16:02:49;2.90;;;2.60;;
54599;SDS011;40500;51.084;16.958;2023-04-01T16:05:33;2.80;;;2.60;;
54599;SDS011;40500;51.084;16.958;2023-04-01T16:08:37;4.70;;;3.40;;
54599;SDS011;40500;51.084;16.958;2023-04-01T16:11:28;5.20;;;3.80;;
54599;SDS011;40500;51.084;16.958;2023-04-01T16:14:16;4.00;;;3.20;;
54599;SDS011;40500;51.084;16.958;2023-04-01T16:17:00;4.90;;;3.80;;
54599;SDS011;40500;51.084;16.958;2023-04-01T16:19:44;5.20;;;4.30;;
54599;SDS011;40500;51.084;16.958;2023-04-01T16:22:21;4.30;;;3.70;;
54599;SDS011;40500;51.084;16.958;2023-04-01T16:24:59;7.50;;;4.50;;
54599;SDS011;40500;51.084;16.958;2023-04-01T16:27:44;3.60;;;3.20;;
54599;SDS011;40500;51.084;16.958;2023-04-01T16:30:32;4.20;;;3.40;;
54599;SDS011;40500;51.084;16.958;2023-04-01T16:33:09;3.40;;;3.10;;
54599;SDS011;40500;51.084;16.958;2023-04-01T16:35:47;3.40;;;3.10;;
54599;SDS011;40500;51.084;16.958;2023-04-01T16:38:26;3.50;;;3.00;;
54599;SDS011;40500;51.084;16.958;2023-04-01T16:41:10;4.50;;;3.90;;
54599;SDS011;40500;51.084;16.958;2023-04-01T16:43:45;5.20;;;3.60;;
54599;SDS011;40500;51.084;16.958;2023-04-01T16:46:26;5.50;;;3.50;;
54599;SDS011;40500;51.084;16.958;2023-04-01T16:49:04;6.20;;;4.20;;
54599;SDS011;40500;51.084;16.958;2023-04-01T16:51:53;5.70;;;4.80;;
54599;SDS011;40500;51.084;16.958;2023-04-01T16:54:30;7.50;;;5.60;;
54599;SDS011;40500;51.084;16.958;2023-04-01T16:57:12;5.60;;;5.00;;
54599;SDS011;40500;51.084;16.958;2023-04-01T16:59:53;6.30;;;4.90;;
54599;SDS011;40500;51.084;16.958;2023-04-01T17:02:30;7.10;;;4.00;;
54599;SDS011;40500;51.084;16.958;2023-04-01T17:05:05;6.10;;;3.90;;
54599;SDS011;40500;51.084;16.958;2023-04-01T17:07:43;5.20;;;3.90;;
54599;SDS011;40500;51.084;16.958;2023-04-01T17:10:28;4.50;;;3.80;;
54599;SDS011;40500;51.084;16.958;2023-04-01T17:13:10;5.40;;;4.40;;
54599;SDS011;40500;51.084;16.958;2023-04-01T17:15:57;7.40;;;4.30;;
54599;SDS011;40500;51.084;16.958;2023-04-01T17:18:39;5.30;;;4.20;;
54599;SDS011;40500;51.084;16.958;2023-04-01T17:21:18;5.80;;;4.70;;
54599;SDS011;40500;51.084;16.958;2023-04-01T17:24:00;5.60;;;4.80;;